createdAt,value
2023-02-07T00:02:25.445Z,92.52
2023-02-07T00:04:53.156Z,92.30
2023-02-07T00:07:22.221Z,92.54
2023-02-07T00:09:50.261Z,92.61
2023-02-07T00:12:17.956Z,92.66
2023-02-07T00:14:45.683Z,92.17
2023-02-07T00:17:13.274Z,92.57
2023-02-07T00:19:40.893Z,92.45
2023-02-07T00:22:08.537Z,92.91
2023-02-07T00:24:37.529Z,92.92
2023-02-07T00:27:05.234Z,92.75
2023-02-07T00:29:33.202Z,92.92
2023-02-07T00:32:00.921Z,92.67
2023-02-07T00:34:28.615Z,92.88
2023-02-07T00:36:56.212Z,92.47
2023-02-07T00:39:23.843Z,91.96
2023-02-07T00:41:53.792Z,92.36
2023-02-07T00:44:21.390Z,92.37
2023-02-07T00:46:49.154Z,92.09
2023-02-07T00:49:16.806Z,92.78
2023-02-07T00:51:44.406Z,92.64
2023-02-07T00:54:12.017Z,93.08
2023-02-07T00:56:39.575Z,93.11
2023-02-07T00:59:08.863Z,92.79
2023-02-07T01:01:36.812Z,93.22
2023-02-07T01:04:04.547Z,93.65
2023-02-07T01:06:33.763Z,93.18
2023-02-07T01:09:02.833Z,93.31
2023-02-07T01:11:30.830Z,92.97
2023-02-07T01:13:59.795Z,93.48
2023-02-07T01:16:30.474Z,93.61
2023-02-07T01:18:58.918Z,93.79
2023-02-07T01:21:28.160Z,94.06
2023-02-07T01:23:56.952Z,93.53
2023-02-07T01:26:25.173Z,93.46
2023-02-07T01:28:52.848Z,93.12
2023-02-07T01:31:22.145Z,93.07
2023-02-07T01:33:54.489Z,93.45
2023-02-07T01:36:22.272Z,93.17
2023-02-07T01:38:50.006Z,93.37
2023-02-07T01:41:17.582Z,93.08
2023-02-07T01:44:00.424Z,93.33
2023-02-07T01:46:29.280Z,94.22
2023-02-07T01:49:00.354Z,94.05
2023-02-07T01:51:29.087Z,93.38
2023-02-07T01:53:59.071Z,93.71
2023-02-07T01:56:32.040Z,93.28
2023-02-07T01:59:00.258Z,92.82
2023-02-07T02:01:27.994Z,92.61
2023-02-07T02:03:58.357Z,92.97
2023-02-07T02:06:28.827Z,92.70
2023-02-07T02:08:58.557Z,92.76
2023-02-07T02:11:51.939Z,92.42
2023-02-07T02:14:28.308Z,92.42
2023-02-07T02:17:01.925Z,92.65
2023-02-07T02:20:16.035Z,92.36
2023-02-07T02:22:56.896Z,92.63
2023-02-07T02:25:50.353Z,93.49
2023-02-07T02:30:47.515Z,93.72
2023-02-07T02:35:47.704Z,93.64
2023-02-07T02:38:18.197Z,93.45
2023-02-07T02:40:52.047Z,94.12
2023-02-07T02:43:26.029Z,94.16
2023-02-07T02:45:57.716Z,94.94
2023-02-07T02:48:26.180Z,96.12
2023-02-07T02:50:53.448Z,96.25
2023-02-07T02:56:12.872Z,95.89
2023-02-07T02:58:51.068Z,96.67
2023-02-07T03:01:20.594Z,96.66
2023-02-07T03:06:23.013Z,96.77
2023-02-07T03:08:55.712Z,96.21
2023-02-07T03:11:25.372Z,96.02
2023-02-07T03:14:01.268Z,95.99
2023-02-07T03:16:33.731Z,95.95
2023-02-07T03:19:07.178Z,96.99
2023-02-07T03:21:34.555Z,96.41
2023-02-07T03:26:31.498Z,97.43
2023-02-07T03:34:17.750Z,97.42
2023-02-07T03:36:50.633Z,97.59
2023-02-07T03:39:18.537Z,98.43
2023-02-07T03:41:51.844Z,97.93
2023-02-07T03:44:20.519Z,97.58
2023-02-07T03:46:50.584Z,97.59
2023-02-07T03:49:19.600Z,98.02
2023-02-07T03:51:48.017Z,98.57
2023-02-07T03:54:15.637Z,98.63
2023-02-07T03:56:43.224Z,98.70
2023-02-07T03:59:10.835Z,98.07
2023-02-07T04:01:41.900Z,98.79
2023-02-07T04:04:12.669Z,98.88
2023-02-07T04:06:41.700Z,99.37
2023-02-07T04:09:11.624Z,98.76
2023-02-07T04:11:39.476Z,99.22
2023-02-07T04:14:07.240Z,99.58
2023-02-07T04:16:34.923Z,99.57
2023-02-07T04:19:02.608Z,99.86
2023-02-07T04:21:30.182Z,99.42
2023-02-07T04:23:59.092Z,99.75
2023-02-07T04:26:26.677Z,99.59
2023-02-07T04:28:54.481Z,99.57
2023-02-07T04:31:22.295Z,99.74
2023-02-07T04:33:49.988Z,100.00
2023-02-07T04:36:17.690Z,100.00
2023-02-07T04:38:45.445Z,100.00
2023-02-07T04:41:14.487Z,99.90
2023-02-07T04:43:42.118Z,100.00
2023-02-07T04:46:09.992Z,99.62
2023-02-07T04:48:38.442Z,99.41
2023-02-07T04:51:06.589Z,99.20
2023-02-07T04:53:34.442Z,99.13
2023-02-07T04:56:02.068Z,98.56
2023-02-07T04:58:31.144Z,98.49
2023-02-07T05:00:58.794Z,98.23
2023-02-07T05:03:26.372Z,98.56
2023-02-07T05:05:54.988Z,98.26
2023-02-07T05:08:24.579Z,98.22
2023-02-07T05:10:54.717Z,98.07
2023-02-07T05:13:22.752Z,98.11
2023-02-07T05:15:52.207Z,97.86
2023-02-07T05:18:20.772Z,97.19
2023-02-07T05:20:49.792Z,97.00
2023-02-07T05:23:18.943Z,97.01
2023-02-07T05:25:48.708Z,96.95
2023-02-07T05:28:16.765Z,96.96
2023-02-07T05:30:44.672Z,96.42
2023-02-07T05:33:12.676Z,95.84
2023-02-07T05:35:41.993Z,95.77
2023-02-07T05:38:11.081Z,95.47
2023-02-07T05:40:39.962Z,95.83
2023-02-07T05:43:07.739Z,95.30
2023-02-07T05:45:36.126Z,95.65
2023-02-07T05:48:04.171Z,95.73
2023-02-07T05:50:33.495Z,95.24
2023-02-07T05:53:01.273Z,95.21
2023-02-07T05:55:28.828Z,94.65
2023-02-07T05:57:57.231Z,95.10
2023-02-07T06:00:25.162Z,94.71
2023-02-07T06:02:52.778Z,94.84
2023-02-07T06:05:21.483Z,95.70
2023-02-07T06:07:51.510Z,95.20
2023-02-07T06:10:19.858Z,94.71
2023-02-07T06:12:47.545Z,95.72
2023-02-07T06:15:15.293Z,95.31
2023-02-07T06:17:42.834Z,95.14
2023-02-07T06:20:11.739Z,94.81
2023-02-07T06:22:39.365Z,94.46
2023-02-07T06:25:11.744Z,94.49
2023-02-07T06:27:40.111Z,94.35
2023-02-07T06:30:08.801Z,93.87
2023-02-07T06:32:36.411Z,94.44
2023-02-07T06:35:04.446Z,94.29
2023-02-07T06:37:32.017Z,94.00
2023-02-07T06:39:59.681Z,93.46
2023-02-07T06:42:28.736Z,93.61
2023-02-07T06:44:56.318Z,92.72
2023-02-07T06:47:24.007Z,93.48
2023-02-07T06:49:51.882Z,92.71
2023-02-07T06:52:19.722Z,93.22
2023-02-07T06:54:47.379Z,93.12
2023-02-07T06:57:15.077Z,93.16
2023-02-07T06:59:44.016Z,92.75
2023-02-07T07:02:12.235Z,93.63
2023-02-07T07:04:40.232Z,93.98
2023-02-07T07:07:08.220Z,94.17
2023-02-07T07:09:35.860Z,92.85
2023-02-07T07:12:04.604Z,93.15
2023-02-07T07:14:32.571Z,93.03
2023-02-07T07:17:01.455Z,91.92
2023-02-07T07:19:29.088Z,92.68
2023-02-07T07:21:56.701Z,92.47
2023-02-07T07:24:24.412Z,92.64
2023-02-07T07:26:52.565Z,92.94
2023-02-07T07:29:20.752Z,93.25
2023-02-07T07:31:48.439Z,93.33
2023-02-07T07:34:17.475Z,93.81
2023-02-07T07:36:45.097Z,93.18
2023-02-07T07:39:13.250Z,92.73
2023-02-07T07:41:40.832Z,92.57
2023-02-07T07:44:08.515Z,93.16
2023-02-07T07:46:36.367Z,92.86
2023-02-07T07:49:03.964Z,92.84
2023-02-07T07:51:32.988Z,92.90
2023-02-07T07:54:00.605Z,92.15
2023-02-07T07:56:29.416Z,91.94
2023-02-07T07:58:57.263Z,92.22
2023-02-07T08:01:25.212Z,92.21
2023-02-07T08:03:52.902Z,91.92
2023-02-07T08:06:20.810Z,92.55
2023-02-07T08:08:49.825Z,92.54
2023-02-07T08:11:17.448Z,92.89
2023-02-07T08:13:44.991Z,92.79
2023-02-07T08:18:50.612Z,92.71
2023-02-07T08:21:18.623Z,91.77
2023-02-07T08:23:46.312Z,91.14
2023-02-07T08:26:15.272Z,90.12
2023-02-07T08:28:42.955Z,90.47
2023-02-07T08:31:13.113Z,89.84
2023-02-07T08:33:40.799Z,89.00
2023-02-07T08:36:11.071Z,88.50
2023-02-07T08:38:38.699Z,87.46
2023-02-07T08:41:06.550Z,87.21
2023-02-07T08:43:35.568Z,87.13
2023-02-07T08:46:03.472Z,86.65
2023-02-07T08:48:31.283Z,86.66
2023-02-07T08:50:59.024Z,86.76
2023-02-07T08:53:26.596Z,86.04
2023-02-07T08:55:54.232Z,85.30
2023-02-07T08:58:21.786Z,85.18
2023-02-07T09:00:50.769Z,84.06
2023-02-07T09:03:18.472Z,84.24
2023-02-07T09:05:46.112Z,84.51
2023-02-07T09:08:13.677Z,83.56
2023-02-07T09:10:41.606Z,83.24
2023-02-07T09:13:09.531Z,82.73
2023-02-07T09:15:37.233Z,81.61
2023-02-07T09:18:06.597Z,81.98
2023-02-07T09:20:34.228Z,82.79
2023-02-07T09:23:20.208Z,83.36
2023-02-07T09:25:49.455Z,82.61
2023-02-07T09:28:17.627Z,80.20
2023-02-07T09:30:46.545Z,79.34
2023-02-07T09:33:16.397Z,78.89
2023-02-07T09:35:46.242Z,79.17
2023-02-07T09:38:15.236Z,78.88
2023-02-07T09:40:44.068Z,78.56
2023-02-07T09:43:18.523Z,78.67
2023-02-07T09:45:47.529Z,78.37
2023-02-07T09:48:21.936Z,77.26
2023-02-07T09:50:52.960Z,77.35
2023-02-07T09:53:24.670Z,76.93
2023-02-07T09:55:55.089Z,77.69
2023-02-07T09:58:31.581Z,77.74
2023-02-07T10:01:02.443Z,77.35
2023-02-07T10:03:33.012Z,77.58
2023-02-07T10:06:12.718Z,77.20
2023-02-07T10:08:45.087Z,76.68
2023-02-07T10:11:20.097Z,77.52
2023-02-07T10:14:07.207Z,77.20
2023-02-07T10:16:47.810Z,77.01
2023-02-07T10:19:26.030Z,77.12
2023-02-07T10:21:59.090Z,76.50
2023-02-07T10:24:53.867Z,76.11
2023-02-07T10:27:27.406Z,76.33
2023-02-07T10:29:57.728Z,75.12
2023-02-07T10:32:27.285Z,74.47
2023-02-07T10:34:58.160Z,75.27
2023-02-07T10:37:27.292Z,74.67
2023-02-07T10:40:02.195Z,74.62
2023-02-07T10:42:31.691Z,73.73
2023-02-07T10:44:59.400Z,73.64
2023-02-07T10:47:27.002Z,73.94
2023-02-07T10:49:56.814Z,73.58
2023-02-07T10:52:29.075Z,73.08
2023-02-07T10:54:58.294Z,71.61
2023-02-07T10:57:27.693Z,72.40
2023-02-07T11:00:04.496Z,72.54
2023-02-07T11:02:48.854Z,71.78
2023-02-07T11:05:37.239Z,71.64
2023-02-07T11:08:12.124Z,72.90
2023-02-07T11:10:41.228Z,72.75
2023-02-07T11:13:14.358Z,72.26
2023-02-07T11:15:49.529Z,72.31
2023-02-07T11:18:29.506Z,71.05
2023-02-07T11:20:58.706Z,70.21
2023-02-07T11:23:26.596Z,69.53
2023-02-07T11:25:56.060Z,70.38
2023-02-07T11:28:26.512Z,68.92
2023-02-07T11:30:58.052Z,68.77
2023-02-07T11:33:27.628Z,67.07
2023-02-07T11:36:12.575Z,67.35
2023-02-07T11:38:41.676Z,67.42
2023-02-07T11:41:18.461Z,67.79
2023-02-07T11:43:57.459Z,67.58
2023-02-07T11:46:32.678Z,67.33
2023-02-07T11:49:00.804Z,67.60
2023-02-07T11:51:32.425Z,66.52
2023-02-07T11:54:02.038Z,65.85
2023-02-07T11:56:32.743Z,65.36
2023-02-07T11:59:00.735Z,65.80
2023-02-07T12:01:30.043Z,66.70
2023-02-07T12:04:00.963Z,66.41
2023-02-07T12:06:36.330Z,66.16
2023-02-07T12:09:06.464Z,65.97
2023-02-07T12:11:37.704Z,65.96
2023-02-07T12:14:12.101Z,65.05
2023-02-07T12:16:43.202Z,64.88
2023-02-07T12:19:14.030Z,64.70
2023-02-07T12:21:52.441Z,63.72
2023-02-07T12:24:23.306Z,63.59
2023-02-07T12:26:54.803Z,61.55
2023-02-07T12:29:28.062Z,60.54
2023-02-07T12:32:02.739Z,60.41
2023-02-07T12:34:34.613Z,60.30
2023-02-07T12:37:09.996Z,61.76
2023-02-07T12:39:42.017Z,59.50
2023-02-07T12:42:29.446Z,61.48
2023-02-07T12:44:59.448Z,61.89
2023-02-07T12:47:35.904Z,64.07
2023-02-07T12:50:14.808Z,64.28
2023-02-07T12:52:51.802Z,60.90
2023-02-07T12:55:28.001Z,60.18
2023-02-07T12:58:03.525Z,61.10
2023-02-07T13:00:38.296Z,60.36
2023-02-07T13:03:16.543Z,59.62
2023-02-07T13:05:54.288Z,61.00
2023-02-07T13:08:32.186Z,61.11
2023-02-07T13:11:07.770Z,62.26
2023-02-07T13:13:40.660Z,62.70
2023-02-07T13:16:13.141Z,62.52
2023-02-07T13:18:44.571Z,63.98
2023-02-07T13:21:18.956Z,63.61
2023-02-07T13:23:49.718Z,62.59
2023-02-07T13:26:20.347Z,61.47
2023-02-07T13:28:50.561Z,60.97
2023-02-07T13:31:20.431Z,61.17
2023-02-07T13:33:49.192Z,62.95
2023-02-07T13:36:20.834Z,63.56
2023-02-07T13:39:00.386Z,63.54
2023-02-07T13:41:33.932Z,64.80
2023-02-07T13:44:20.344Z,64.48
2023-02-07T13:46:56.764Z,63.27
2023-02-07T13:49:31.211Z,62.94
2023-02-07T13:52:03.234Z,62.49
2023-02-07T13:54:36.893Z,62.79
2023-02-07T13:57:22.120Z,63.21
2023-02-07T14:00:18.863Z,63.34
2023-02-07T14:02:50.844Z,63.39
2023-02-07T14:05:22.728Z,62.98
2023-02-07T14:07:55.897Z,62.87
2023-02-07T14:10:45.667Z,63.91
2023-02-07T14:13:30.591Z,63.88
2023-02-07T14:16:04.993Z,63.82
2023-02-07T14:18:40.854Z,63.48
2023-02-07T14:21:24.965Z,62.62
2023-02-07T14:24:03.180Z,62.72
2023-02-07T14:26:51.118Z,62.37
2023-02-07T14:29:55.478Z,62.31
2023-02-07T14:33:02.659Z,62.43
2023-02-07T14:35:34.714Z,62.29
2023-02-07T14:38:13.564Z,62.14
2023-02-07T14:41:09.690Z,61.49
2023-02-07T14:43:45.851Z,62.72
2023-02-07T14:46:16.905Z,62.41
2023-02-07T14:48:50.927Z,62.50
2023-02-07T14:51:22.477Z,62.55
2023-02-07T14:53:58.272Z,62.97
2023-02-07T14:56:39.249Z,61.89
2023-02-07T14:59:07.380Z,61.96
2023-02-07T15:01:34.992Z,61.82
2023-02-07T15:04:03.746Z,62.02
2023-02-07T15:06:38.256Z,62.00
2023-02-07T15:09:06.548Z,61.80
2023-02-07T15:11:34.142Z,61.88
2023-02-07T15:14:03.138Z,61.96
2023-02-07T15:16:32.593Z,61.92
2023-02-07T15:19:03.692Z,63.04
2023-02-07T15:21:35.893Z,62.80
2023-02-07T15:24:06.462Z,62.79
2023-02-07T15:26:34.869Z,63.02
2023-02-07T15:29:05.044Z,63.51
2023-02-07T15:31:39.267Z,63.17
2023-02-07T15:34:09.178Z,63.86
2023-02-07T15:36:40.418Z,64.28
2023-02-07T15:39:13.881Z,64.65
2023-02-07T15:41:41.608Z,65.23
2023-02-07T15:44:21.013Z,64.58
2023-02-07T15:46:50.331Z,64.90
2023-02-07T15:49:40.647Z,64.83
2023-02-07T15:52:16.357Z,64.04
2023-02-07T15:54:46.327Z,64.40
2023-02-07T15:57:19.842Z,64.58
2023-02-07T15:59:52.008Z,64.39
2023-02-07T16:02:29.782Z,65.64
2023-02-07T16:04:57.492Z,65.76
2023-02-07T16:07:26.523Z,66.71
2023-02-07T16:09:54.467Z,67.64
2023-02-07T16:12:43.857Z,67.77
2023-02-07T16:15:29.334Z,67.79
2023-02-07T16:17:57.345Z,68.22
2023-02-07T16:20:25.803Z,68.29
2023-02-07T16:22:57.471Z,69.15
2023-02-07T16:25:28.597Z,68.81
2023-02-07T16:27:56.651Z,69.40
2023-02-07T16:30:26.785Z,68.72
2023-02-07T16:32:54.470Z,69.36
2023-02-07T16:35:23.485Z,68.73
2023-02-07T16:37:51.589Z,69.35
2023-02-07T16:40:22.454Z,69.53
2023-02-07T16:42:50.909Z,69.75
2023-02-07T16:45:21.148Z,70.06
2023-02-07T16:47:49.073Z,70.25
2023-02-07T16:50:19.593Z,70.64
2023-02-07T16:52:48.039Z,70.76
2023-02-07T16:55:16.167Z,70.92
2023-02-07T16:57:46.269Z,70.92
2023-02-07T17:00:16.515Z,71.24
2023-02-07T17:02:44.235Z,70.77
2023-02-07T17:05:11.822Z,70.82
2023-02-07T17:07:39.434Z,71.24
2023-02-07T17:10:19.839Z,71.21
2023-02-07T17:12:48.875Z,71.44
2023-02-07T17:15:16.771Z,71.37
2023-02-07T17:17:44.373Z,71.73
2023-02-07T17:20:20.375Z,71.19
2023-02-07T17:22:48.793Z,71.05
2023-02-07T17:25:16.795Z,71.22
2023-02-07T17:27:44.490Z,71.37
2023-02-07T17:30:18.488Z,71.17
2023-02-07T17:32:46.436Z,70.85
2023-02-07T17:35:14.461Z,71.67
2023-02-07T17:37:42.206Z,71.34
2023-02-07T17:40:22.000Z,70.98
2023-02-07T17:42:49.819Z,71.47
2023-02-07T17:45:19.328Z,71.50
2023-02-07T17:47:47.040Z,71.83
2023-02-07T17:50:17.845Z,71.74
2023-02-07T17:52:45.621Z,71.64
2023-02-07T17:55:13.326Z,71.56
2023-02-07T17:57:41.526Z,71.21
2023-02-07T18:00:12.830Z,71.39
2023-02-07T18:02:42.636Z,71.32
2023-02-07T18:05:10.660Z,71.30
2023-02-07T18:07:38.359Z,71.51
2023-02-07T18:10:09.587Z,71.61
2023-02-07T18:12:37.323Z,70.61
2023-02-07T18:15:08.394Z,70.89
2023-02-07T18:17:36.441Z,70.78
2023-02-07T18:20:06.613Z,70.78
2023-02-07T18:22:34.350Z,70.78
2023-02-07T18:25:01.923Z,70.70
2023-02-07T18:27:29.564Z,70.72
2023-02-07T18:29:57.193Z,70.80
2023-02-07T18:32:24.811Z,70.55
2023-02-07T18:34:52.661Z,70.76
2023-02-07T18:37:22.431Z,70.26
2023-02-07T18:39:50.201Z,70.50
2023-02-07T18:42:17.928Z,70.45
2023-02-07T18:44:45.946Z,69.99
2023-02-07T18:47:13.608Z,70.07
2023-02-07T18:49:41.264Z,70.34
2023-02-07T18:52:08.882Z,70.31
2023-02-07T18:54:38.893Z,70.34
2023-02-07T18:57:06.791Z,70.40
2023-02-07T18:59:35.036Z,70.73
2023-02-07T19:02:03.358Z,70.21
2023-02-07T19:04:31.158Z,70.29
2023-02-07T19:06:59.688Z,70.92
2023-02-07T19:09:28.008Z,70.75
2023-02-07T19:11:58.321Z,70.87
2023-02-07T19:14:30.665Z,70.66
2023-02-07T19:16:58.725Z,70.31
2023-02-07T19:19:29.019Z,70.21
2023-02-07T19:21:57.394Z,70.44
2023-02-07T19:24:25.556Z,70.62
2023-02-07T19:26:55.012Z,70.71
2023-02-07T19:29:28.614Z,70.37
2023-02-07T19:31:56.956Z,70.47
2023-02-07T19:34:24.898Z,70.78
2023-02-07T19:36:52.536Z,70.79
2023-02-07T19:39:20.179Z,71.27
2023-02-07T19:41:47.806Z,71.62
2023-02-07T19:44:15.446Z,71.89
2023-02-07T19:46:45.032Z,72.53
2023-02-07T19:49:13.289Z,72.85
2023-02-07T19:51:41.091Z,73.56
2023-02-07T19:54:08.745Z,74.44
2023-02-07T19:56:37.486Z,75.06
2023-02-07T19:59:06.895Z,75.30
2023-02-07T20:01:37.281Z,76.06
2023-02-07T20:04:06.792Z,76.31
2023-02-07T20:06:35.721Z,75.67
2023-02-07T20:09:05.468Z,75.33
2023-02-07T20:11:33.337Z,74.97
2023-02-07T20:14:03.105Z,75.43
2023-02-07T20:16:33.537Z,75.85
2023-02-07T20:19:01.602Z,76.19
2023-02-07T20:21:33.539Z,76.65
2023-02-07T20:24:01.629Z,76.51
2023-02-07T20:26:31.740Z,76.45
2023-02-07T20:29:00.823Z,76.22
2023-02-07T20:31:29.192Z,75.58
2023-02-07T20:33:57.627Z,74.51
2023-02-07T20:36:26.060Z,74.43
2023-02-07T20:38:57.097Z,73.87
2023-02-07T20:41:39.336Z,73.16
2023-02-07T20:44:11.406Z,72.79
2023-02-07T20:46:40.109Z,72.51
2023-02-07T20:49:09.282Z,72.46
2023-02-07T20:51:38.029Z,71.54
2023-02-07T20:54:07.904Z,71.20
2023-02-07T20:56:36.306Z,71.19
2023-02-07T20:59:03.946Z,70.95
2023-02-07T21:01:32.701Z,71.25
2023-02-07T21:04:01.617Z,70.95
2023-02-07T21:06:29.896Z,71.82
2023-02-07T21:09:00.858Z,72.10
2023-02-07T21:11:33.679Z,72.34
2023-02-07T21:14:01.884Z,72.55
2023-02-07T21:16:30.734Z,72.71
2023-02-07T21:18:58.727Z,72.65
2023-02-07T21:21:26.931Z,72.32
2023-02-07T21:23:54.786Z,72.29
2023-02-07T21:26:22.471Z,72.25
2023-02-07T21:28:51.670Z,72.38
2023-02-07T21:31:21.141Z,71.99
2023-02-07T21:33:51.127Z,71.83
2023-02-07T21:36:20.352Z,71.74
2023-02-07T21:38:49.584Z,71.77
2023-02-07T21:41:28.642Z,71.77
2023-02-07T21:43:58.542Z,72.00
2023-02-07T21:46:28.251Z,71.47
2023-02-07T21:48:59.003Z,71.51
2023-02-07T21:51:27.282Z,71.51
2023-02-07T21:53:56.072Z,71.49
2023-02-07T21:56:25.944Z,71.36
2023-02-07T21:58:54.734Z,71.39
2023-02-07T22:01:24.429Z,72.02
2023-02-07T22:03:53.850Z,72.42
2023-02-07T22:06:22.138Z,72.30
2023-02-07T22:08:54.131Z,71.70
2023-02-07T22:11:23.274Z,71.86
2023-02-07T22:13:52.388Z,72.82
2023-02-07T22:16:21.935Z,73.58
2023-02-07T22:18:52.529Z,72.83
2023-02-07T22:21:22.241Z,72.68
2023-02-07T22:23:50.153Z,72.55
2023-02-07T22:26:18.723Z,72.65
2023-02-07T22:28:46.418Z,73.10
2023-02-07T22:31:15.900Z,72.81
2023-02-07T22:33:44.248Z,73.42
2023-02-07T22:36:14.976Z,73.70
2023-02-07T22:38:42.761Z,74.17
2023-02-07T22:41:10.421Z,74.64
2023-02-07T22:43:38.385Z,74.26
2023-02-07T22:46:07.112Z,74.68
2023-02-07T22:48:36.288Z,74.98
2023-02-07T22:51:11.969Z,74.91
2023-02-07T22:53:41.207Z,74.93
2023-02-07T22:56:09.645Z,74.33
2023-02-07T22:58:38.152Z,73.92
2023-02-07T23:01:06.550Z,74.19
2023-02-07T23:03:34.855Z,73.67
2023-02-07T23:06:05.541Z,74.10
2023-02-07T23:08:33.373Z,74.28
2023-02-07T23:11:02.590Z,73.77
2023-02-07T23:13:30.517Z,74.23
2023-02-07T23:15:58.234Z,74.28
2023-02-07T23:18:25.958Z,74.23
2023-02-07T23:20:53.611Z,74.64
2023-02-07T23:23:22.578Z,74.21
2023-02-07T23:25:50.228Z,74.14
2023-02-07T23:28:19.246Z,73.80
2023-02-07T23:30:47.027Z,73.71
2023-02-07T23:33:14.651Z,73.92
2023-02-07T23:35:42.398Z,73.96
2023-02-07T23:38:10.042Z,74.19
2023-02-07T23:40:37.777Z,73.90
2023-02-07T23:43:05.523Z,73.90
2023-02-07T23:45:34.573Z,74.19
2023-02-07T23:48:03.846Z,74.49
2023-02-07T23:50:31.530Z,74.43
2023-02-07T23:52:59.169Z,74.77
2023-02-07T23:55:26.832Z,75.44
2023-02-07T23:57:55.122Z,76.21
